createdAt,value
2018-07-08T00:00:37.906Z,97488.33
2018-07-08T00:02:16.073Z,97488.41
2018-07-08T00:03:53.483Z,97489.77
2018-07-08T00:05:32.189Z,97491.83
2018-07-08T00:07:09.864Z,97493.34
2018-07-08T00:08:46.019Z,97490.88
2018-07-08T00:10:25.800Z,97488.67
2018-07-08T00:12:02.362Z,97490.55
2018-07-08T00:13:40.119Z,97491.30
2018-07-08T00:15:20.888Z,97487.46
2018-07-08T00:16:57.291Z,97493.67
2018-07-08T00:18:33.337Z,97492.58
2018-07-08T00:20:11.088Z,97497.44
2018-07-08T00:21:50.578Z,97497.11
2018-07-08T00:23:27.266Z,97493.95
2018-07-08T00:25:02.907Z,97486.93
2018-07-08T00:26:46.388Z,97486.52
2018-07-08T00:28:23.065Z,97485.06
2018-07-08T00:30:04.741Z,97479.63
2018-07-08T00:31:40.990Z,97489.29
2018-07-08T00:33:17.865Z,97486.25
2018-07-08T00:34:53.873Z,97488.30
2018-07-08T00:36:32.303Z,97489.78
2018-07-08T00:38:09.847Z,97491.34
2018-07-08T00:39:49.743Z,97487.89
2018-07-08T00:41:25.357Z,97492.20
2018-07-08T00:43:01.188Z,97495.92
2018-07-08T00:44:38.918Z,97497.73
2018-07-08T00:46:14.489Z,97491.64
2018-07-08T00:47:51.310Z,97492.66
2018-07-08T00:49:29.558Z,97495.73
2018-07-08T00:51:06.006Z,97493.76
2018-07-08T00:52:43.169Z,97491.42
2018-07-08T00:54:18.750Z,97486.30
2018-07-08T00:55:54.462Z,97489.15
2018-07-08T00:57:31.690Z,97492.36
2018-07-08T00:59:10.025Z,97495.03
2018-07-08T01:00:48.494Z,97494.20
2018-07-08T01:02:29.289Z,97494.69
2018-07-08T01:04:05.320Z,97495.08
2018-07-08T01:05:42.750Z,97497.81
2018-07-08T01:07:18.637Z,97497.34
2018-07-08T01:08:54.834Z,97492.25
2018-07-08T01:10:32.627Z,97499.80
2018-07-08T01:12:10.055Z,97504.77
2018-07-08T01:13:45.329Z,97499.60
2018-07-08T01:15:21.800Z,97496.86
2018-07-08T01:16:58.679Z,97499.72
2018-07-08T01:18:35.483Z,97508.63
2018-07-08T01:20:11.752Z,97500.41
2018-07-08T01:21:46.866Z,97497.08
2018-07-08T01:23:22.133Z,97501.58
2018-07-08T01:25:08.878Z,97498.62
2018-07-08T01:26:44.304Z,97499.25
2018-07-08T01:28:19.703Z,97500.79
2018-07-08T01:29:59.324Z,97495.91
2018-07-08T01:31:39.251Z,97493.27
2018-07-08T01:33:16.228Z,97496.88
2018-07-08T01:34:52.398Z,97498.11
2018-07-08T01:36:28.526Z,97501.35
2018-07-08T01:38:04.765Z,97507.15
2018-07-08T01:39:40.898Z,97509.30
2018-07-08T01:41:16.356Z,97505.62
2018-07-08T01:42:51.588Z,97503.50
2018-07-08T01:44:26.889Z,97509.22
2018-07-08T01:46:01.865Z,97508.27
2018-07-08T01:47:36.994Z,97503.33
2018-07-08T01:49:12.249Z,97511.43
2018-07-08T01:50:47.623Z,97506.98
2018-07-08T01:52:24.138Z,97511.51
2018-07-08T01:53:59.854Z,97513.47
2018-07-08T01:55:35.217Z,97511.09
2018-07-08T01:57:10.641Z,97512.38
2018-07-08T01:58:45.848Z,97513.72
2018-07-08T02:00:21.580Z,97511.02
2018-07-08T02:01:57.959Z,97512.11
2018-07-08T02:03:34.122Z,97512.63
2018-07-08T02:05:10.251Z,97519.21
2018-07-08T02:06:46.140Z,97516.90
2018-07-08T02:08:22.026Z,97517.92
2018-07-08T02:09:58.355Z,97516.66
2018-07-08T02:11:35.088Z,97520.06
2018-07-08T02:13:10.950Z,97518.94
2018-07-08T02:14:47.989Z,97522.37
2018-07-08T02:16:24.122Z,97518.02
2018-07-08T02:18:00.852Z,97521.95
2018-07-08T02:19:37.362Z,97519.81
2018-07-08T02:21:12.951Z,97519.47
2018-07-08T02:22:49.144Z,97526.05
2018-07-08T02:24:26.042Z,97520.13
2018-07-08T02:26:02.269Z,97519.98
2018-07-08T02:27:37.805Z,97521.59
2018-07-08T02:29:13.654Z,97521.59
2018-07-08T02:30:49.820Z,97521.17
2018-07-08T02:32:25.703Z,97522.27
2018-07-08T02:34:00.961Z,97522.45
2018-07-08T02:35:37.499Z,97519.61
2018-07-08T02:37:13.793Z,97520.23
2018-07-08T02:38:48.788Z,97520.21
2018-07-08T02:40:24.452Z,97520.21
2018-07-08T02:42:00.257Z,97526.45
2018-07-08T02:43:36.339Z,97528.16
2018-07-08T02:45:15.310Z,97531.84
2018-07-08T02:46:50.881Z,97524.91
2018-07-08T02:48:26.643Z,97524.31
2018-07-08T02:50:02.768Z,97527.12
2018-07-08T02:51:38.278Z,97523.96
2018-07-08T02:53:13.880Z,97525.22
2018-07-08T02:54:49.546Z,97530.69
2018-07-08T02:56:25.031Z,97538.18
2018-07-08T02:58:00.403Z,97531.91
2018-07-08T02:59:36.019Z,97529.50
2018-07-08T03:01:12.408Z,97532.69
2018-07-08T03:02:50.036Z,97529.95
2018-07-08T03:04:25.954Z,97531.81
2018-07-08T03:06:01.155Z,97534.23
2018-07-08T03:07:36.968Z,97522.25
2018-07-08T03:09:12.577Z,97523.30
2018-07-08T03:10:48.935Z,97526.20
2018-07-08T03:12:25.034Z,97526.70
2018-07-08T03:14:02.558Z,97526.03
2018-07-08T03:15:39.800Z,97519.86
2018-07-08T03:17:15.295Z,97514.56
2018-07-08T03:18:51.425Z,97519.27
2018-07-08T03:20:27.548Z,97519.44
2018-07-08T03:22:03.269Z,97515.02
2018-07-08T03:23:39.152Z,97517.83
2018-07-08T03:25:16.122Z,97513.12
2018-07-08T03:26:51.693Z,97514.92
2018-07-08T03:28:27.659Z,97512.20
2018-07-08T03:30:06.588Z,97518.87
2018-07-08T03:31:42.258Z,97517.40
2018-07-08T03:33:18.767Z,97516.97
2018-07-08T03:34:55.170Z,97510.73
2018-07-08T03:36:30.398Z,97509.55
2018-07-08T03:38:05.800Z,97513.05
2018-07-08T03:39:41.420Z,97512.88
2018-07-08T03:41:16.892Z,97518.36
2018-07-08T03:42:52.617Z,97518.86
2018-07-08T03:44:29.033Z,97523.23
2018-07-08T03:46:04.309Z,97524.50
2018-07-08T03:47:40.073Z,97527.66
2018-07-08T03:49:16.325Z,97519.21
2018-07-08T03:50:51.403Z,97524.16
2018-07-08T03:52:26.764Z,97524.33
2018-07-08T03:54:01.955Z,97523.31
2018-07-08T03:55:38.019Z,97517.67
2018-07-08T03:57:13.940Z,97520.23
2018-07-08T03:58:49.098Z,97521.95
2018-07-08T04:00:24.304Z,97528.86
2018-07-08T04:01:59.721Z,97532.19
2018-07-08T04:03:35.382Z,97527.57
2018-07-08T04:05:11.537Z,97531.32
2018-07-08T04:06:46.960Z,97532.94
2018-07-08T04:08:23.935Z,97530.48
2018-07-08T04:10:14.386Z,97529.95
2018-07-08T04:11:49.818Z,97531.77
2018-07-08T04:13:25.021Z,97525.70
2018-07-08T04:15:00.333Z,97531.50
2018-07-08T04:16:37.060Z,97534.30
2018-07-08T04:18:13.380Z,97527.57
2018-07-08T04:19:49.368Z,97531.50
2018-07-08T04:21:24.592Z,97524.41
2018-07-08T04:23:00.384Z,97524.52
2018-07-08T04:24:35.756Z,97529.63
2018-07-08T04:26:11.374Z,97531.94
2018-07-08T04:27:46.606Z,97531.42
2018-07-08T04:29:21.899Z,97527.59
2018-07-08T04:30:58.142Z,97529.73
2018-07-08T04:32:33.367Z,97532.28
2018-07-08T04:34:08.779Z,97533.75
2018-07-08T04:35:44.157Z,97532.13
2018-07-08T04:37:19.330Z,97532.79
2018-07-08T04:38:54.485Z,97536.47
2018-07-08T04:40:29.929Z,97534.59
2018-07-08T04:42:05.777Z,97536.31
2018-07-08T04:43:40.971Z,97534.94
2018-07-08T04:45:17.842Z,97541.25
2018-07-08T04:46:53.919Z,97540.77
2018-07-08T04:48:29.832Z,97545.63
2018-07-08T04:50:05.863Z,97551.72
2018-07-08T04:51:41.553Z,97545.79
2018-07-08T04:53:20.092Z,97552.78
2018-07-08T04:54:55.546Z,97559.42
2018-07-08T04:56:31.124Z,97555.91
2018-07-08T04:58:06.746Z,97558.53
2018-07-08T04:59:43.434Z,97552.41
2018-07-08T05:01:19.158Z,97553.81
2018-07-08T05:02:54.329Z,97553.80
2018-07-08T05:04:30.093Z,97549.33
2018-07-08T05:06:05.589Z,97554.86
2018-07-08T05:07:40.763Z,97555.17
2018-07-08T05:09:16.003Z,97557.44
2018-07-08T05:10:51.306Z,97555.77
2018-07-08T05:12:27.090Z,97555.88
2018-07-08T05:14:02.421Z,97560.69
2018-07-08T05:15:38.229Z,97560.14
2018-07-08T05:17:13.696Z,97563.85
2018-07-08T05:18:50.822Z,97569.03
2018-07-08T05:20:26.180Z,97566.84
2018-07-08T05:24:00.894Z,97563.94
2018-07-08T05:25:36.557Z,97568.59
2018-07-08T05:27:12.034Z,97565.45
2018-07-08T05:28:47.845Z,97571.17
2018-07-08T05:30:23.785Z,97575.71
2018-07-08T05:32:01.755Z,97571.09
2018-07-08T05:33:38.035Z,97570.65
2018-07-08T05:35:15.184Z,97569.42
2018-07-08T05:36:51.557Z,97568.95
2018-07-08T05:38:26.901Z,97571.91
2018-07-08T05:40:03.422Z,97570.63
2018-07-08T05:41:38.725Z,97568.58
2018-07-08T05:43:14.745Z,97571.38
2018-07-08T05:44:50.989Z,97574.97
2018-07-08T05:46:26.670Z,97573.27
2018-07-08T05:48:02.018Z,97582.05
2018-07-08T05:49:38.479Z,97583.31
2018-07-08T05:51:14.963Z,97577.66
2018-07-08T05:52:50.907Z,97577.55
2018-07-08T05:54:29.879Z,97583.74
2018-07-08T05:56:06.083Z,97586.53
2018-07-08T05:57:43.364Z,97576.85
2018-07-08T05:59:18.841Z,97575.91
2018-07-08T06:00:54.485Z,97577.25
2018-07-08T06:02:29.812Z,97574.71
2018-07-08T06:04:07.816Z,97577.79
2018-07-08T06:05:44.589Z,97572.34
2018-07-08T06:07:26.325Z,97572.99
2018-07-08T06:09:03.335Z,97573.92
2018-07-08T06:10:39.823Z,97568.36
2018-07-08T06:12:19.620Z,97568.72
2018-07-08T06:13:55.613Z,97572.06
2018-07-08T06:15:35.811Z,97567.79
2018-07-08T06:17:11.917Z,97571.43
2018-07-08T06:18:52.218Z,97568.09
2018-07-08T06:20:28.391Z,97569.78
2018-07-08T06:22:04.469Z,97559.98
2018-07-08T06:23:41.183Z,97557.50
2018-07-08T06:25:17.106Z,97553.55
2018-07-08T06:26:55.604Z,97558.83
2018-07-08T06:28:31.314Z,97559.70
2018-07-08T06:30:13.886Z,97560.27
2018-07-08T06:31:51.875Z,97555.97
2018-07-08T06:33:28.081Z,97560.24
2018-07-08T06:35:03.893Z,97560.94
2018-07-08T06:36:41.018Z,97563.39
2018-07-08T06:38:16.361Z,97561.91
2018-07-08T06:39:53.657Z,97560.38
2018-07-08T06:41:30.453Z,97562.33
2018-07-08T06:43:06.208Z,97559.63
2018-07-08T06:44:42.346Z,97556.03
2018-07-08T06:46:17.620Z,97557.31
2018-07-08T06:47:53.057Z,97562.76
2018-07-08T06:49:32.649Z,97559.25
2018-07-08T06:51:07.995Z,97554.36
2018-07-08T06:52:44.741Z,97559.91
2018-07-08T06:54:21.027Z,97561.83
2018-07-08T06:55:56.248Z,97562.48
2018-07-08T06:57:32.198Z,97565.86
2018-07-08T06:59:07.842Z,97566.84
2018-07-08T07:00:42.905Z,97567.69
2018-07-08T07:04:11.137Z,97561.44
2018-07-08T07:05:49.823Z,97569.38
2018-07-08T07:09:49.820Z,97564.20
2018-07-08T07:11:26.795Z,97563.08
2018-07-08T07:13:09.428Z,97559.39
2018-07-08T07:14:48.124Z,97560.80
2018-07-08T07:16:24.345Z,97555.45
2018-07-08T07:18:01.949Z,97558.09
2018-07-08T07:19:41.792Z,97560.48
2018-07-08T07:21:17.362Z,97566.72
2018-07-08T07:22:57.092Z,97571.09
2018-07-08T07:26:17.425Z,97566.86
2018-07-08T07:27:54.524Z,97567.88
2018-07-08T07:29:29.962Z,97564.30
2018-07-08T07:31:06.619Z,97562.14
2018-07-08T07:32:44.391Z,97565.25
2018-07-08T07:34:27.088Z,97573.53
2018-07-08T07:36:02.619Z,97574.75
2018-07-08T07:37:39.459Z,97573.12
2018-07-08T07:39:18.705Z,97576.09
2018-07-08T07:41:03.756Z,97582.20
2018-07-08T07:42:41.285Z,97580.94
2018-07-08T07:44:19.858Z,97578.78
2018-07-08T07:46:01.023Z,97588.89
2018-07-08T07:47:40.365Z,97582.12
2018-07-08T07:49:20.514Z,97581.84
2018-07-08T07:50:55.924Z,97578.80
2018-07-08T07:52:31.178Z,97581.31
2018-07-08T07:54:08.408Z,97580.62
2018-07-08T07:55:45.398Z,97569.84
2018-07-08T07:57:22.228Z,97572.54
2018-07-08T07:58:57.783Z,97574.77
2018-07-08T08:00:33.506Z,97585.06
2018-07-08T08:02:10.193Z,97581.58
2018-07-08T08:03:48.486Z,97591.16
2018-07-08T08:05:29.727Z,97584.23
2018-07-08T08:07:06.820Z,97586.39
2018-07-08T08:08:41.527Z,97587.56
2018-07-08T08:10:16.318Z,97585.27
2018-07-08T08:11:53.396Z,97588.00
2018-07-08T08:13:32.261Z,97588.73
2018-07-08T08:15:09.927Z,97588.80
2018-07-08T08:16:46.688Z,97593.31
2018-07-08T08:18:22.233Z,97591.30
2018-07-08T08:19:58.052Z,97588.00
2018-07-08T08:21:38.197Z,97583.48
2018-07-08T08:23:16.129Z,97579.98
2018-07-08T08:24:51.463Z,97580.34
2018-07-08T08:26:31.923Z,97579.70
2018-07-08T08:28:14.572Z,97576.09
2018-07-08T08:29:52.740Z,97582.38
2018-07-08T08:31:38.674Z,97585.95
2018-07-08T08:33:18.365Z,97580.62
2018-07-08T08:35:13.207Z,97573.77
2018-07-08T08:36:51.289Z,97583.42
2018-07-08T08:38:37.741Z,97585.53
2018-07-08T08:40:22.978Z,97576.84
2018-07-08T08:41:58.399Z,97586.92
2018-07-08T08:49:10.832Z,97588.93
2018-07-08T08:50:48.749Z,97584.00
2018-07-08T08:52:24.880Z,97584.77
2018-07-08T08:54:11.734Z,97582.54
2018-07-08T08:56:00.095Z,97582.06
2018-07-08T08:57:42.586Z,97587.95
2018-07-08T08:59:26.335Z,97587.66
2018-07-08T09:01:04.700Z,97592.05
2018-07-08T09:02:45.465Z,97583.78
2018-07-08T09:04:23.378Z,97590.83
2018-07-08T09:06:07.862Z,97585.94
2018-07-08T09:07:46.346Z,97593.82
2018-07-08T09:09:22.331Z,97589.42
2018-07-08T09:11:00.589Z,97586.47
2018-07-08T09:12:36.471Z,97583.59
2018-07-08T09:14:13.702Z,97593.25
2018-07-08T09:15:51.367Z,97592.20
2018-07-08T09:17:27.844Z,97586.18
2018-07-08T09:19:05.660Z,97595.83
2018-07-08T09:20:44.383Z,97595.33
2018-07-08T09:22:31.321Z,97586.55
2018-07-08T09:24:08.997Z,97584.27
2018-07-08T09:25:48.806Z,97593.51
2018-07-08T09:27:25.347Z,97587.13
2018-07-08T09:29:05.304Z,97588.80
2018-07-08T09:30:41.744Z,97593.91
2018-07-08T09:32:19.281Z,97596.97
2018-07-08T09:33:56.798Z,97596.06
2018-07-08T09:35:35.594Z,97598.22
2018-07-08T09:37:12.481Z,97603.88
2018-07-08T09:38:51.665Z,97601.20
2018-07-08T09:40:31.290Z,97594.33
2018-07-08T09:42:16.326Z,97601.30
2018-07-08T09:43:55.334Z,97599.80
2018-07-08T09:45:34.491Z,97600.25
2018-07-08T09:47:14.974Z,97603.82
2018-07-08T09:48:52.067Z,97599.87
2018-07-08T09:50:30.045Z,97598.09
2018-07-08T09:52:08.097Z,97600.14
2018-07-08T09:53:44.365Z,97608.37
2018-07-08T09:55:21.216Z,97602.17
2018-07-08T09:57:01.707Z,97614.81
2018-07-08T09:58:40.456Z,97609.46
2018-07-08T10:00:22.605Z,97599.92
2018-07-08T10:02:05.343Z,97603.55
2018-07-08T10:03:42.086Z,97612.07
2018-07-08T10:05:22.723Z,97607.72
2018-07-08T10:06:58.308Z,97604.55
2018-07-08T10:08:34.675Z,97604.19
2018-07-08T10:10:10.788Z,97613.59
2018-07-08T10:11:46.920Z,97600.20
2018-07-08T10:13:22.710Z,97594.83
2018-07-08T10:14:58.735Z,97602.83
2018-07-08T10:16:36.209Z,97599.19
2018-07-08T10:18:14.580Z,97593.94
2018-07-08T10:19:54.724Z,97594.85
2018-07-08T10:21:34.579Z,97598.50
2018-07-08T10:23:13.817Z,97596.48
2018-07-08T10:24:57.424Z,97579.28
2018-07-08T10:26:37.369Z,97585.43
2018-07-08T10:28:23.044Z,97600.81
2018-07-08T10:31:52.534Z,97599.31
2018-07-08T10:33:38.222Z,97596.91
2018-07-08T10:35:35.204Z,97590.23
2018-07-08T10:37:14.219Z,97591.61
2018-07-08T10:38:55.338Z,97584.75
2018-07-08T10:40:34.264Z,97589.03
2018-07-08T10:42:13.198Z,97590.78
2018-07-08T10:44:06.395Z,97592.70
2018-07-08T10:45:52.138Z,97594.33
2018-07-08T10:47:33.217Z,97589.77
2018-07-08T10:49:22.648Z,97589.20
2018-07-08T10:51:03.373Z,97593.33
2018-07-08T10:52:39.935Z,97577.69
2018-07-08T10:54:16.435Z,97589.95
2018-07-08T10:55:56.517Z,97592.94
2018-07-08T10:57:35.721Z,97583.55
2018-07-08T10:59:18.741Z,97582.83
2018-07-08T11:01:40.632Z,97582.73
2018-07-08T11:03:20.157Z,97587.53
2018-07-08T11:05:09.281Z,97587.52
2018-07-08T11:07:05.915Z,97590.67
2018-07-08T11:08:54.079Z,97591.52
2018-07-08T11:10:33.427Z,97577.36
2018-07-08T11:12:17.879Z,97586.14
2018-07-08T11:16:05.736Z,97590.52
2018-07-08T11:17:45.752Z,97593.16
2018-07-08T11:19:30.850Z,97579.28
2018-07-08T11:21:13.215Z,97580.20
2018-07-08T11:23:01.249Z,97579.65
2018-07-08T11:24:45.281Z,97589.30
2018-07-08T11:26:38.189Z,97578.08
2018-07-08T11:28:19.434Z,97580.09
2018-07-08T11:29:56.357Z,97582.76
2018-07-08T11:31:33.259Z,97576.13
2018-07-08T11:33:16.748Z,97571.28
2018-07-08T11:34:58.359Z,97567.28
2018-07-08T11:36:40.052Z,97568.93
2018-07-08T11:38:31.482Z,97560.73
2018-07-08T11:40:16.510Z,97568.17
2018-07-08T11:41:53.866Z,97562.37
2018-07-08T11:43:31.617Z,97561.83
2018-07-08T11:47:27.795Z,97560.70
2018-07-08T11:49:16.827Z,97557.92
2018-07-08T11:50:57.999Z,97554.09
2018-07-08T11:52:37.982Z,97560.42
2018-07-08T11:54:18.591Z,97566.50
2018-07-08T11:56:00.398Z,97561.94
2018-07-08T11:59:57.410Z,97556.41
2018-07-08T12:01:46.563Z,97570.09
2018-07-08T12:03:40.445Z,97568.17
2018-07-08T12:05:31.796Z,97554.48
2018-07-08T12:07:24.213Z,97558.09
2018-07-08T12:09:09.334Z,97553.02
2018-07-08T12:10:49.905Z,97552.09
2018-07-08T12:12:27.876Z,97549.33
2018-07-08T12:14:20.680Z,97546.95
2018-07-08T12:16:01.038Z,97551.02
2018-07-08T12:17:36.446Z,97552.40
2018-07-08T12:19:23.483Z,97538.10
2018-07-08T12:21:07.147Z,97550.23
2018-07-08T12:22:43.916Z,97547.70
2018-07-08T12:24:19.930Z,97543.03
2018-07-08T12:25:59.710Z,97543.35
2018-07-08T12:27:35.407Z,97550.48
2018-07-08T12:29:15.233Z,97544.56
2018-07-08T12:30:51.353Z,97548.25
2018-07-08T12:32:30.696Z,97546.80
2018-07-08T12:34:06.878Z,97541.31
2018-07-08T12:35:51.457Z,97548.95
2018-07-08T12:37:29.148Z,97554.19
2018-07-08T12:39:06.669Z,97554.06
2018-07-08T12:40:44.514Z,97544.45
2018-07-08T12:42:27.329Z,97535.86
2018-07-08T12:44:08.609Z,97541.29
2018-07-08T12:45:51.692Z,97532.88
2018-07-08T12:47:29.637Z,97538.72
2018-07-08T12:49:10.266Z,97543.08
2018-07-08T12:50:52.245Z,97538.02
2018-07-08T12:52:30.520Z,97531.96
2018-07-08T12:54:09.081Z,97529.61
2018-07-08T12:55:50.902Z,97527.53
2018-07-08T12:57:31.197Z,97528.62
2018-07-08T12:59:07.374Z,97524.45
2018-07-08T13:02:29.198Z,97520.77
2018-07-08T13:04:11.547Z,97529.52
2018-07-08T13:05:49.884Z,97521.97
2018-07-08T13:07:32.284Z,97518.05
2018-07-08T13:09:14.371Z,97530.99
2018-07-08T13:10:58.798Z,97526.34
2018-07-08T13:12:38.225Z,97533.12
2018-07-08T13:14:19.318Z,97522.88
2018-07-08T13:15:57.304Z,97521.55
2018-07-08T13:17:35.032Z,97522.46
2018-07-08T13:19:11.970Z,97533.17
2018-07-08T13:22:31.574Z,97532.99
2018-07-08T13:25:52.640Z,97539.66
2018-07-08T13:27:29.881Z,97529.67
2018-07-08T13:29:10.340Z,97522.73
2018-07-08T13:30:51.516Z,97524.50
2018-07-08T13:32:33.788Z,97524.19
2018-07-08T13:34:13.527Z,97527.95
2018-07-08T13:35:53.390Z,97520.44
2018-07-08T13:37:35.472Z,97522.22
2018-07-08T13:39:12.749Z,97523.95
2018-07-08T13:40:49.124Z,97529.70
2018-07-08T13:42:27.998Z,97533.96
2018-07-08T13:44:08.725Z,97540.28
2018-07-08T13:45:45.718Z,97530.17
2018-07-08T13:47:22.927Z,97522.38
2018-07-08T13:49:01.226Z,97524.47
2018-07-08T13:50:37.901Z,97517.16
2018-07-08T13:52:14.570Z,97536.94
2018-07-08T13:53:51.962Z,97523.33
2018-07-08T13:55:31.014Z,97521.06
2018-07-08T13:57:11.578Z,97531.34
2018-07-08T13:58:50.919Z,97517.41
2018-07-08T14:00:34.492Z,97523.02
2018-07-08T14:02:16.960Z,97511.98
2018-07-08T14:03:53.411Z,97516.98
2018-07-08T14:05:33.433Z,97518.78
2018-07-08T14:07:11.361Z,97519.39
2018-07-08T14:08:49.006Z,97515.68
2018-07-08T14:10:28.354Z,97514.44
2018-07-08T14:12:09.958Z,97516.74
2018-07-08T14:13:48.653Z,97523.69
2018-07-08T14:15:28.532Z,97518.03
2018-07-08T14:17:04.801Z,97512.56
2018-07-08T14:18:43.226Z,97526.75
2018-07-08T14:20:22.366Z,97521.18
2018-07-08T14:22:02.616Z,97512.22
2018-07-08T14:23:38.871Z,97514.78
2018-07-08T14:25:18.371Z,97513.22
2018-07-08T14:26:56.148Z,97513.56
2018-07-08T14:28:31.929Z,97517.53
2018-07-08T14:30:18.088Z,97505.69
2018-07-08T14:31:54.782Z,97516.19
2018-07-08T14:33:33.592Z,97515.10
2018-07-08T14:35:12.266Z,97513.42
2018-07-08T14:36:49.356Z,97502.70
2018-07-08T14:38:25.598Z,97509.53
2018-07-08T14:40:03.464Z,97508.82
2018-07-08T14:41:43.450Z,97503.88
2018-07-08T14:43:21.822Z,97509.44
2018-07-08T14:45:05.580Z,97514.17
2018-07-08T14:46:42.803Z,97501.84
2018-07-08T14:48:20.058Z,97503.53
2018-07-08T14:50:00.928Z,97499.55
2018-07-08T14:51:41.234Z,97495.19
2018-07-08T14:53:18.717Z,97494.60
2018-07-08T14:54:56.652Z,97495.89
2018-07-08T14:56:36.292Z,97502.96
2018-07-08T14:58:13.148Z,97507.39
2018-07-08T14:59:51.716Z,97507.14
2018-07-08T15:01:30.375Z,97501.42
2018-07-08T15:03:11.517Z,97500.27
2018-07-08T15:04:49.085Z,97501.71
2018-07-08T15:06:32.307Z,97499.03
2018-07-08T15:08:10.527Z,97502.95
2018-07-08T15:09:52.382Z,97491.50
2018-07-08T15:11:30.689Z,97508.50
2018-07-08T15:13:06.251Z,97504.78
2018-07-08T15:14:42.716Z,97505.98
2018-07-08T15:16:20.526Z,97500.87
2018-07-08T15:17:57.236Z,97490.73
2018-07-08T15:19:35.088Z,97494.94
2018-07-08T15:21:16.164Z,97503.61
2018-07-08T15:22:52.767Z,97499.06
2018-07-08T15:24:29.634Z,97500.48
2018-07-08T15:26:12.462Z,97496.09
2018-07-08T15:27:49.420Z,97488.10
2018-07-08T15:29:29.637Z,97491.33
2018-07-08T15:31:17.050Z,97482.44
2018-07-08T15:32:55.385Z,97481.81
2018-07-08T15:34:32.300Z,97484.14
2018-07-08T15:36:09.543Z,97486.07
2018-07-08T15:37:49.229Z,97475.56
2018-07-08T15:39:29.606Z,97480.41
2018-07-08T15:42:59.790Z,97482.04
2018-07-08T15:44:37.770Z,97479.14
2018-07-08T15:46:19.255Z,97473.13
2018-07-08T15:48:02.473Z,97479.59
2018-07-08T15:49:42.029Z,97480.44
2018-07-08T15:51:19.280Z,97482.03
2018-07-08T15:52:57.727Z,97482.28
2018-07-08T15:54:39.858Z,97485.56
2018-07-08T15:56:24.687Z,97477.75
2018-07-08T15:58:04.203Z,97483.20
2018-07-08T15:59:44.725Z,97484.42
2018-07-08T16:01:21.265Z,97483.20
2018-07-08T16:02:59.910Z,97487.06
2018-07-08T16:04:36.673Z,97476.02
2018-07-08T16:06:17.644Z,97479.23
2018-07-08T16:07:57.716Z,97481.73
2018-07-08T16:09:39.151Z,97484.11
2018-07-08T16:14:02.023Z,97472.06
2018-07-08T16:15:41.082Z,97483.83
2018-07-08T16:17:20.228Z,97479.47
2018-07-08T16:18:58.393Z,97479.94
2018-07-08T16:20:48.280Z,97477.55
2018-07-08T16:22:27.673Z,97473.73
2018-07-08T16:24:09.389Z,97471.86
2018-07-08T16:26:01.756Z,97471.20
2018-07-08T16:27:41.485Z,97471.98
2018-07-08T16:29:25.685Z,97481.62
2018-07-08T16:31:17.314Z,97468.15
2018-07-08T16:32:57.812Z,97458.45
2018-07-08T16:34:37.084Z,97469.95
2018-07-08T16:36:16.085Z,97458.28
2018-07-08T16:38:06.834Z,97455.55
2018-07-08T16:39:43.566Z,97463.13
2018-07-08T16:41:25.587Z,97463.77
2018-07-08T16:43:05.520Z,97456.36
2018-07-08T16:44:45.693Z,97452.64
2018-07-08T16:46:25.438Z,97457.44
2018-07-08T16:48:08.617Z,97454.72
2018-07-08T16:49:51.015Z,97459.27
2018-07-08T16:51:27.764Z,97452.02
2018-07-08T16:53:08.083Z,97459.99
2018-07-08T16:54:51.820Z,97452.18
2018-07-08T16:56:35.813Z,97456.96
2018-07-08T16:58:29.473Z,97453.69
2018-07-08T17:00:21.311Z,97458.59
2018-07-08T17:02:13.700Z,97465.23
2018-07-08T17:03:58.514Z,97457.88
2018-07-08T17:05:40.331Z,97454.52
2018-07-08T17:07:24.140Z,97457.95
2018-07-08T17:09:13.344Z,97451.00
2018-07-08T17:10:54.513Z,97460.02
2018-07-08T17:13:05.727Z,97457.20
2018-07-08T17:14:44.344Z,97457.73
2018-07-08T17:16:31.228Z,97462.80
2018-07-08T17:18:12.411Z,97466.70
2018-07-08T17:19:51.255Z,97466.15
2018-07-08T17:21:36.127Z,97467.61
2018-07-08T17:23:25.859Z,97465.23
2018-07-08T17:25:03.984Z,97468.67
2018-07-08T17:26:45.000Z,97461.42
2018-07-08T17:28:25.852Z,97460.89
2018-07-08T17:30:09.554Z,97460.30
2018-07-08T17:31:49.812Z,97461.70
2018-07-08T17:33:35.293Z,97459.01
2018-07-08T17:35:12.432Z,97456.83
2018-07-08T17:36:50.594Z,97462.92
2018-07-08T17:38:34.368Z,97464.09
2018-07-08T17:40:24.402Z,97464.97
2018-07-08T17:42:02.255Z,97468.25
2018-07-08T17:43:40.852Z,97459.38
2018-07-08T17:45:18.848Z,97456.49
2018-07-08T17:46:56.757Z,97455.25
2018-07-08T17:48:36.962Z,97455.70
2018-07-08T17:50:15.748Z,97454.58
2018-07-08T17:52:02.352Z,97467.03
2018-07-08T17:53:39.859Z,97466.84
2018-07-08T17:55:17.780Z,97463.05
2018-07-08T17:57:00.953Z,97461.59
2018-07-08T17:58:42.396Z,97466.08
2018-07-08T18:00:19.388Z,97459.34
2018-07-08T18:02:03.446Z,97463.03
2018-07-08T18:03:45.721Z,97456.27
2018-07-08T18:05:22.396Z,97465.40
2018-07-08T18:07:01.981Z,97460.10
2018-07-08T18:08:43.136Z,97463.67
2018-07-08T18:10:28.578Z,97467.61
2018-07-08T18:12:10.111Z,97465.95
2018-07-08T18:13:51.758Z,97460.10
2018-07-08T18:15:41.710Z,97469.97
2018-07-08T18:17:23.189Z,97469.56
2018-07-08T18:19:04.077Z,97478.75
2018-07-08T18:20:45.560Z,97476.58
2018-07-08T18:22:34.740Z,97477.13
2018-07-08T18:24:14.142Z,97486.14
2018-07-08T18:25:51.838Z,97480.69
2018-07-08T18:27:43.711Z,97475.40
2018-07-08T18:33:04.531Z,97477.97
2018-07-08T18:34:47.400Z,97477.48
2018-07-08T18:36:28.113Z,97476.20
2018-07-08T18:38:11.789Z,97480.00
2018-07-08T18:39:51.901Z,97474.42
2018-07-08T18:41:35.285Z,97470.75
2018-07-08T18:43:11.999Z,97481.38
2018-07-08T18:44:49.640Z,97476.95
2018-07-08T18:46:30.522Z,97472.51
2018-07-08T18:48:12.159Z,97476.94
2018-07-08T18:51:42.240Z,97475.19
2018-07-08T18:53:19.703Z,97478.37
2018-07-08T18:54:59.606Z,97475.81
2018-07-08T18:56:36.785Z,97478.22
2018-07-08T18:58:18.673Z,97478.00
2018-07-08T19:01:48.225Z,97476.83
2018-07-08T19:03:30.295Z,97482.35
2018-07-08T19:05:50.458Z,97480.30
2018-07-08T19:09:35.173Z,97478.77
2018-07-08T19:11:17.581Z,97476.09
2018-07-08T19:13:05.670Z,97477.45
2018-07-08T19:14:45.051Z,97477.02
2018-07-08T19:16:22.290Z,97478.23
2018-07-08T19:17:59.735Z,97472.95
2018-07-08T19:19:35.567Z,97482.23
2018-07-08T19:23:02.564Z,97484.50
2018-07-08T19:24:42.096Z,97483.17
2018-07-08T19:26:18.257Z,97483.09
2018-07-08T19:27:58.281Z,97485.52
2018-07-08T19:29:33.826Z,97479.90
2018-07-08T19:31:11.235Z,97488.52
2018-07-08T19:32:49.145Z,97488.91
2018-07-08T19:34:25.339Z,97488.80
2018-07-08T19:36:05.576Z,97484.73
2018-07-08T19:37:42.727Z,97485.39
2018-07-08T19:39:22.259Z,97489.28
2018-07-08T19:41:00.912Z,97490.09
2018-07-08T19:42:39.969Z,97491.97
2018-07-08T19:44:26.175Z,97490.88
2018-07-08T19:46:18.702Z,97493.02
2018-07-08T19:47:56.989Z,97496.46
2018-07-08T19:49:37.834Z,97491.97
2018-07-08T19:51:25.133Z,97497.12
2018-07-08T19:53:09.599Z,97501.90
2018-07-08T19:54:47.351Z,97511.00
2018-07-08T19:58:23.355Z,97508.44
2018-07-08T20:00:00.652Z,97510.74
2018-07-08T20:01:41.589Z,97512.09
2018-07-08T20:03:19.105Z,97512.16
2018-07-08T20:05:00.390Z,97513.12
2018-07-08T20:06:53.389Z,97515.16
2018-07-08T20:08:37.920Z,97512.19